sensor_id;sensor_type;location;lat;lon;timestamp;P1;durP1;ratioP1;P2;durP2;ratioP2
49139;SDS011;34959;49.310;8.646;2023-06-10T00:00:43;5.65;;;4.03;;
49139;SDS011;34959;49.310;8.646;2023-06-10T00:03:09;6.03;;;3.78;;
49139;SDS011;34959;49.310;8.646;2023-06-10T00:05:35;4.22;;;3.60;;
49139;SDS011;34959;49.310;8.646;2023-06-10T00:08:01;7.28;;;3.92;;
49139;SDS011;34959;49.310;8.646;2023-06-10T00:10:35;5.28;;;3.63;;
49139;SDS011;34959;49.310;8.646;2023-06-10T00:13:05;6.07;;;3.67;;
49139;SDS011;34959;49.310;8.646;2023-06-10T00:15:36;5.22;;;3.95;;
49139;SDS011;34959;49.310;8.646;2023-06-10T00:18:02;4.63;;;3.72;;
49139;SDS011;34959;49.310;8.646;2023-06-10T00:20:28;5.88;;;3.88;;
49139;SDS011;34959;49.310;8.646;2023-06-10T00:22:55;7.32;;;4.13;;
49139;SDS011;34959;49.310;8.646;2023-06-10T00:25:22;4.80;;;3.70;;
49139;SDS011;34959;49.310;8.646;2023-06-10T00:27:47;4.07;;;3.60;;
49139;SDS011;34959;49.310;8.646;2023-06-10T00:30:13;7.35;;;3.80;;
49139;SDS011;34959;49.310;8.646;2023-06-10T00:32:38;6.70;;;3.70;;
49139;SDS011;34959;49.310;8.646;2023-06-10T00:35:04;4.40;;;3.70;;
49139;SDS011;34959;49.310;8.646;2023-06-10T00:37:31;6.18;;;3.97;;
49139;SDS011;34959;49.310;8.646;2023-06-10T00:39:57;5.13;;;4.18;;
49139;SDS011;34959;49.310;8.646;2023-06-10T00:42:22;6.20;;;3.83;;
49139;SDS011;34959;49.310;8.646;2023-06-10T00:44:50;4.95;;;3.83;;
49139;SDS011;34959;49.310;8.646;2023-06-10T00:47:15;4.50;;;3.45;;
49139;SDS011;34959;49.310;8.646;2023-06-10T00:49:41;6.93;;;3.72;;
49139;SDS011;34959;49.310;8.646;2023-06-10T00:52:07;4.88;;;3.60;;
49139;SDS011;34959;49.310;8.646;2023-06-10T00:54:33;5.57;;;3.88;;
49139;SDS011;34959;49.310;8.646;2023-06-10T00:57:00;4.97;;;3.35;;
49139;SDS011;34959;49.310;8.646;2023-06-10T00:59:26;4.93;;;3.45;;
49139;SDS011;34959;49.310;8.646;2023-06-10T01:01:52;8.48;;;3.88;;
49139;SDS011;34959;49.310;8.646;2023-06-10T01:04:17;5.22;;;3.55;;
49139;SDS011;34959;49.310;8.646;2023-06-10T01:06:47;8.40;;;4.13;;
49139;SDS011;34959;49.310;8.646;2023-06-10T01:12:00;4.82;;;3.92;;
49139;SDS011;34959;49.310;8.646;2023-06-10T01:14:28;4.63;;;4.10;;
49139;SDS011;34959;49.310;8.646;2023-06-10T01:16:54;7.78;;;3.92;;
49139;SDS011;34959;49.310;8.646;2023-06-10T01:19:19;6.10;;;4.15;;
49139;SDS011;34959;49.310;8.646;2023-06-10T01:21:45;6.68;;;4.10;;
49139;SDS011;34959;49.310;8.646;2023-06-10T01:24:14;6.75;;;4.40;;
49139;SDS011;34959;49.310;8.646;2023-06-10T01:26:43;5.03;;;4.07;;
49139;SDS011;34959;49.310;8.646;2023-06-10T01:29:19;4.72;;;4.22;;
49139;SDS011;34959;49.310;8.646;2023-06-10T01:31:49;4.30;;;3.90;;
49139;SDS011;34959;49.310;8.646;2023-06-10T01:34:16;5.80;;;4.40;;
49139;SDS011;34959;49.310;8.646;2023-06-10T01:36:44;6.38;;;4.10;;
49139;SDS011;34959;49.310;8.646;2023-06-10T01:39:12;5.28;;;3.97;;
49139;SDS011;34959;49.310;8.646;2023-06-10T01:41:39;7.20;;;4.10;;
49139;SDS011;34959;49.310;8.646;2023-06-10T01:44:05;5.95;;;4.10;;
49139;SDS011;34959;49.310;8.646;2023-06-10T01:46:31;6.90;;;4.63;;
49139;SDS011;34959;49.310;8.646;2023-06-10T01:48:56;5.38;;;4.07;;
49139;SDS011;34959;49.310;8.646;2023-06-10T01:51:22;4.65;;;4.13;;
49139;SDS011;34959;49.310;8.646;2023-06-10T01:53:47;6.50;;;4.45;;
49139;SDS011;34959;49.310;8.646;2023-06-10T01:56:12;5.97;;;3.90;;
49139;SDS011;34959;49.310;8.646;2023-06-10T01:58:42;5.03;;;4.20;;
49139;SDS011;34959;49.310;8.646;2023-06-10T02:01:08;6.43;;;4.38;;
49139;SDS011;34959;49.310;8.646;2023-06-10T02:03:34;4.13;;;3.67;;
49139;SDS011;34959;49.310;8.646;2023-06-10T02:06:00;4.72;;;3.78;;
49139;SDS011;34959;49.310;8.646;2023-06-10T02:08:25;5.72;;;4.22;;
49139;SDS011;34959;49.310;8.646;2023-06-10T02:10:52;5.97;;;4.10;;
49139;SDS011;34959;49.310;8.646;2023-06-10T02:13:18;6.60;;;4.32;;
49139;SDS011;34959;49.310;8.646;2023-06-10T02:15:43;5.88;;;4.00;;
49139;SDS011;34959;49.310;8.646;2023-06-10T02:18:09;4.13;;;3.72;;
49139;SDS011;34959;49.310;8.646;2023-06-10T02:20:37;4.43;;;4.03;;
49139;SDS011;34959;49.310;8.646;2023-06-10T02:23:03;5.03;;;4.10;;
49139;SDS011;34959;49.310;8.646;2023-06-10T02:25:28;7.40;;;4.28;;
49139;SDS011;34959;49.310;8.646;2023-06-10T02:27:54;4.43;;;3.60;;
49139;SDS011;34959;49.310;8.646;2023-06-10T02:30:19;4.78;;;3.90;;
49139;SDS011;34959;49.310;8.646;2023-06-10T02:32:45;7.18;;;4.00;;
49139;SDS011;34959;49.310;8.646;2023-06-10T02:35:13;5.38;;;3.78;;
49139;SDS011;34959;49.310;8.646;2023-06-10T02:37:39;5.20;;;3.85;;
49139;SDS011;34959;49.310;8.646;2023-06-10T02:40:05;4.43;;;4.00;;
49139;SDS011;34959;49.310;8.646;2023-06-10T02:42:31;5.30;;;4.10;;
49139;SDS011;34959;49.310;8.646;2023-06-10T02:44:56;4.78;;;3.83;;
49139;SDS011;34959;49.310;8.646;2023-06-10T02:47:22;6.40;;;3.83;;
49139;SDS011;34959;49.310;8.646;2023-06-10T02:49:47;4.78;;;3.92;;
49139;SDS011;34959;49.310;8.646;2023-06-10T02:52:13;5.10;;;3.95;;
49139;SDS011;34959;49.310;8.646;2023-06-10T02:54:38;4.68;;;3.95;;
49139;SDS011;34959;49.310;8.646;2023-06-10T02:57:04;4.60;;;4.00;;
49139;SDS011;34959;49.310;8.646;2023-06-10T02:59:31;5.70;;;3.88;;
49139;SDS011;34959;49.310;8.646;2023-06-10T03:01:57;4.18;;;3.78;;
49139;SDS011;34959;49.310;8.646;2023-06-10T03:04:22;6.28;;;3.83;;
49139;SDS011;34959;49.310;8.646;2023-06-10T03:06:48;4.28;;;3.75;;
49139;SDS011;34959;49.310;8.646;2023-06-10T03:09:14;5.18;;;4.20;;
49139;SDS011;34959;49.310;8.646;2023-06-10T03:11:40;4.88;;;4.38;;
49139;SDS011;34959;49.310;8.646;2023-06-10T03:14:06;5.25;;;3.90;;
49139;SDS011;34959;49.310;8.646;2023-06-10T03:16:31;4.32;;;3.42;;
49139;SDS011;34959;49.310;8.646;2023-06-10T03:18:57;4.28;;;3.88;;
49139;SDS011;34959;49.310;8.646;2023-06-10T03:21:22;5.85;;;4.07;;
49139;SDS011;34959;49.310;8.646;2023-06-10T03:23:48;5.57;;;4.00;;
49139;SDS011;34959;49.310;8.646;2023-06-10T03:26:13;6.10;;;4.18;;
49139;SDS011;34959;49.310;8.646;2023-06-10T03:28:40;4.63;;;3.80;;
49139;SDS011;34959;49.310;8.646;2023-06-10T03:31:06;4.60;;;4.00;;
49139;SDS011;34959;49.310;8.646;2023-06-10T03:33:31;4.75;;;3.97;;
49139;SDS011;34959;49.310;8.646;2023-06-10T03:35:57;6.38;;;4.15;;
49139;SDS011;34959;49.310;8.646;2023-06-10T03:38:23;4.93;;;3.88;;
49139;SDS011;34959;49.310;8.646;2023-06-10T03:40:48;5.88;;;3.72;;
49139;SDS011;34959;49.310;8.646;2023-06-10T03:43:13;4.88;;;3.60;;
49139;SDS011;34959;49.310;8.646;2023-06-10T03:45:39;5.43;;;4.13;;
49139;SDS011;34959;49.310;8.646;2023-06-10T03:48:06;4.82;;;3.88;;
49139;SDS011;34959;49.310;8.646;2023-06-10T03:50:33;5.10;;;4.18;;
49139;SDS011;34959;49.310;8.646;2023-06-10T03:52:59;4.72;;;4.28;;
49139;SDS011;34959;49.310;8.646;2023-06-10T03:55:24;4.28;;;3.78;;
49139;SDS011;34959;49.310;8.646;2023-06-10T03:57:50;4.28;;;3.83;;
49139;SDS011;34959;49.310;8.646;2023-06-10T04:00:15;5.13;;;3.92;;
49139;SDS011;34959;49.310;8.646;2023-06-10T04:02:42;4.47;;;3.97;;
49139;SDS011;34959;49.310;8.646;2023-06-10T04:05:12;4.22;;;3.83;;
49139;SDS011;34959;49.310;8.646;2023-06-10T04:07:39;5.80;;;3.92;;
49139;SDS011;34959;49.310;8.646;2023-06-10T04:10:06;4.20;;;3.75;;
49139;SDS011;34959;49.310;8.646;2023-06-10T04:12:32;4.90;;;3.88;;
49139;SDS011;34959;49.310;8.646;2023-06-10T04:14:57;4.65;;;3.92;;
49139;SDS011;34959;49.310;8.646;2023-06-10T04:17:23;5.20;;;4.00;;
49139;SDS011;34959;49.310;8.646;2023-06-10T04:19:49;4.60;;;4.00;;
49139;SDS011;34959;49.310;8.646;2023-06-10T04:22:15;5.28;;;4.32;;
49139;SDS011;34959;49.310;8.646;2023-06-10T04:24:41;4.45;;;3.88;;
49139;SDS011;34959;49.310;8.646;2023-06-10T04:27:07;7.43;;;4.28;;
49139;SDS011;34959;49.310;8.646;2023-06-10T04:29:33;4.20;;;3.80;;
49139;SDS011;34959;49.310;8.646;2023-06-10T04:31:58;4.22;;;3.60;;
49139;SDS011;34959;49.310;8.646;2023-06-10T04:34:24;8.77;;;3.85;;
49139;SDS011;34959;49.310;8.646;2023-06-10T04:36:50;4.55;;;3.65;;
49139;SDS011;34959;49.310;8.646;2023-06-10T04:39:16;4.43;;;4.00;;
49139;SDS011;34959;49.310;8.646;2023-06-10T04:41:42;4.95;;;4.05;;
49139;SDS011;34959;49.310;8.646;2023-06-10T04:44:07;7.30;;;4.10;;
49139;SDS011;34959;49.310;8.646;2023-06-10T04:46:32;4.15;;;3.75;;
49139;SDS011;34959;49.310;8.646;2023-06-10T04:48:58;4.63;;;3.90;;
49139;SDS011;34959;49.310;8.646;2023-06-10T04:51:23;5.32;;;4.15;;
49139;SDS011;34959;49.310;8.646;2023-06-10T04:53:49;4.75;;;4.18;;
49139;SDS011;34959;49.310;8.646;2023-06-10T04:56:14;5.30;;;3.90;;
49139;SDS011;34959;49.310;8.646;2023-06-10T04:58:41;6.75;;;4.18;;
49139;SDS011;34959;49.310;8.646;2023-06-10T05:01:06;5.25;;;4.03;;
49139;SDS011;34959;49.310;8.646;2023-06-10T05:03:32;4.68;;;4.13;;
49139;SDS011;34959;49.310;8.646;2023-06-10T05:05:57;4.47;;;4.07;;
49139;SDS011;34959;49.310;8.646;2023-06-10T05:08:22;4.43;;;3.75;;
49139;SDS011;34959;49.310;8.646;2023-06-10T05:10:48;4.82;;;4.32;;
49139;SDS011;34959;49.310;8.646;2023-06-10T05:13:13;4.85;;;4.00;;
49139;SDS011;34959;49.310;8.646;2023-06-10T05:15:38;5.60;;;4.20;;
49139;SDS011;34959;49.310;8.646;2023-06-10T05:18:05;5.10;;;3.97;;
49139;SDS011;34959;49.310;8.646;2023-06-10T05:20:30;4.88;;;3.90;;
49139;SDS011;34959;49.310;8.646;2023-06-10T05:22:56;4.68;;;3.95;;
49139;SDS011;34959;49.310;8.646;2023-06-10T05:25:21;4.63;;;3.97;;
49139;SDS011;34959;49.310;8.646;2023-06-10T05:27:48;5.38;;;4.10;;
49139;SDS011;34959;49.310;8.646;2023-06-10T05:30:13;4.80;;;4.25;;
49139;SDS011;34959;49.310;8.646;2023-06-10T05:32:39;4.85;;;4.35;;
49139;SDS011;34959;49.310;8.646;2023-06-10T05:35:04;4.75;;;4.05;;
49139;SDS011;34959;49.310;8.646;2023-06-10T05:37:31;6.75;;;4.25;;
49139;SDS011;34959;49.310;8.646;2023-06-10T05:39:58;5.10;;;4.10;;
49139;SDS011;34959;49.310;8.646;2023-06-10T05:42:23;5.85;;;4.47;;
49139;SDS011;34959;49.310;8.646;2023-06-10T05:44:48;5.95;;;4.40;;
49139;SDS011;34959;49.310;8.646;2023-06-10T05:47:14;5.30;;;4.38;;
49139;SDS011;34959;49.310;8.646;2023-06-10T05:49:39;5.70;;;4.65;;
49139;SDS011;34959;49.310;8.646;2023-06-10T05:52:05;8.02;;;4.88;;
49139;SDS011;34959;49.310;8.646;2023-06-10T05:54:31;7.82;;;4.63;;
49139;SDS011;34959;49.310;8.646;2023-06-10T05:56:56;6.40;;;4.53;;
49139;SDS011;34959;49.310;8.646;2023-06-10T05:59:21;5.05;;;4.45;;
49139;SDS011;34959;49.310;8.646;2023-06-10T06:01:48;7.07;;;4.43;;
49139;SDS011;34959;49.310;8.646;2023-06-10T06:04:14;4.82;;;4.28;;
49139;SDS011;34959;49.310;8.646;2023-06-10T06:06:40;5.18;;;4.30;;
49139;SDS011;34959;49.310;8.646;2023-06-10T06:09:05;5.07;;;4.57;;
49139;SDS011;34959;49.310;8.646;2023-06-10T06:11:31;5.50;;;4.43;;
49139;SDS011;34959;49.310;8.646;2023-06-10T06:13:56;4.90;;;4.22;;
49139;SDS011;34959;49.310;8.646;2023-06-10T06:16:22;5.20;;;4.22;;
49139;SDS011;34959;49.310;8.646;2023-06-10T06:18:48;4.43;;;4.03;;
49139;SDS011;34959;49.310;8.646;2023-06-10T06:21:13;5.68;;;4.28;;
49139;SDS011;34959;49.310;8.646;2023-06-10T06:23:38;5.03;;;4.50;;
49139;SDS011;34959;49.310;8.646;2023-06-10T06:26:04;8.82;;;4.55;;
49139;SDS011;34959;49.310;8.646;2023-06-10T06:28:29;5.35;;;4.25;;
49139;SDS011;34959;49.310;8.646;2023-06-10T06:30:56;6.18;;;4.28;;
49139;SDS011;34959;49.310;8.646;2023-06-10T06:33:21;7.25;;;3.97;;
49139;SDS011;34959;49.310;8.646;2023-06-10T06:35:47;4.85;;;4.03;;
49139;SDS011;34959;49.310;8.646;2023-06-10T06:38:12;6.05;;;4.35;;
49139;SDS011;34959;49.310;8.646;2023-06-10T06:40:38;6.57;;;4.30;;
49139;SDS011;34959;49.310;8.646;2023-06-10T06:43:03;5.15;;;3.88;;
49139;SDS011;34959;49.310;8.646;2023-06-10T06:45:28;6.00;;;4.00;;
49139;SDS011;34959;49.310;8.646;2023-06-10T06:47:54;5.38;;;4.38;;
49139;SDS011;34959;49.310;8.646;2023-06-10T06:50:20;5.07;;;4.32;;
49139;SDS011;34959;49.310;8.646;2023-06-10T06:52:46;5.97;;;4.35;;
49139;SDS011;34959;49.310;8.646;2023-06-10T06:55:11;8.30;;;4.38;;
49139;SDS011;34959;49.310;8.646;2023-06-10T06:57:37;14.70;;;4.57;;
49139;SDS011;34959;49.310;8.646;2023-06-10T07:00:02;9.93;;;4.60;;
49139;SDS011;34959;49.310;8.646;2023-06-10T07:02:29;4.88;;;3.67;;
49139;SDS011;34959;49.310;8.646;2023-06-10T07:04:57;6.60;;;4.55;;
49139;SDS011;34959;49.310;8.646;2023-06-10T07:07:22;5.25;;;4.47;;
49139;SDS011;34959;49.310;8.646;2023-06-10T07:09:47;8.07;;;4.35;;
49139;SDS011;34959;49.310;8.646;2023-06-10T07:12:13;4.78;;;4.28;;
49139;SDS011;34959;49.310;8.646;2023-06-10T07:14:38;5.20;;;3.92;;
49139;SDS011;34959;49.310;8.646;2023-06-10T07:17:04;8.15;;;4.53;;
49139;SDS011;34959;49.310;8.646;2023-06-10T07:19:29;6.35;;;4.10;;
49139;SDS011;34959;49.310;8.646;2023-06-10T07:21:55;4.78;;;4.05;;
49139;SDS011;34959;49.310;8.646;2023-06-10T07:24:20;5.00;;;4.30;;
49139;SDS011;34959;49.310;8.646;2023-06-10T07:26:46;4.95;;;4.10;;
49139;SDS011;34959;49.310;8.646;2023-06-10T07:29:11;5.88;;;4.53;;
49139;SDS011;34959;49.310;8.646;2023-06-10T07:31:37;4.90;;;4.00;;
49139;SDS011;34959;49.310;8.646;2023-06-10T07:34:03;4.38;;;3.75;;
49139;SDS011;34959;49.310;8.646;2023-06-10T07:36:28;4.65;;;4.10;;
49139;SDS011;34959;49.310;8.646;2023-06-10T07:38:54;4.60;;;4.03;;
49139;SDS011;34959;49.310;8.646;2023-06-10T07:41:20;4.78;;;3.83;;
49139;SDS011;34959;49.310;8.646;2023-06-10T07:43:45;5.57;;;4.30;;
49139;SDS011;34959;49.310;8.646;2023-06-10T07:46:11;7.85;;;4.40;;
49139;SDS011;34959;49.310;8.646;2023-06-10T07:48:36;4.60;;;4.15;;
49139;SDS011;34959;49.310;8.646;2023-06-10T07:51:02;5.25;;;4.00;;
49139;SDS011;34959;49.310;8.646;2023-06-10T07:53:27;4.43;;;3.78;;
49139;SDS011;34959;49.310;8.646;2023-06-10T07:55:53;5.00;;;3.97;;
49139;SDS011;34959;49.310;8.646;2023-06-10T07:58:18;5.05;;;4.10;;
49139;SDS011;34959;49.310;8.646;2023-06-10T08:00:44;4.32;;;3.92;;
49139;SDS011;34959;49.310;8.646;2023-06-10T08:03:09;4.53;;;3.88;;
49139;SDS011;34959;49.310;8.646;2023-06-10T08:05:35;5.05;;;3.80;;
49139;SDS011;34959;49.310;8.646;2023-06-10T08:08:00;4.75;;;3.83;;
49139;SDS011;34959;49.310;8.646;2023-06-10T08:10:25;4.85;;;3.88;;
49139;SDS011;34959;49.310;8.646;2023-06-10T08:12:51;8.15;;;3.90;;
49139;SDS011;34959;49.310;8.646;2023-06-10T08:15:16;4.13;;;3.65;;
49139;SDS011;34959;49.310;8.646;2023-06-10T08:17:42;4.90;;;3.90;;
49139;SDS011;34959;49.310;8.646;2023-06-10T08:20:07;4.45;;;3.75;;
49139;SDS011;34959;49.310;8.646;2023-06-10T08:22:33;5.55;;;4.05;;
49139;SDS011;34959;49.310;8.646;2023-06-10T08:24:58;5.45;;;4.45;;
49139;SDS011;34959;49.310;8.646;2023-06-10T08:27:24;3.78;;;3.35;;
49139;SDS011;34959;49.310;8.646;2023-06-10T08:29:52;8.10;;;4.28;;
49139;SDS011;34959;49.310;8.646;2023-06-10T08:32:18;5.80;;;3.45;;
49139;SDS011;34959;49.310;8.646;2023-06-10T08:34:43;4.53;;;3.90;;
49139;SDS011;34959;49.310;8.646;2023-06-10T08:37:08;4.10;;;3.53;;
49139;SDS011;34959;49.310;8.646;2023-06-10T08:39:34;4.38;;;3.80;;
49139;SDS011;34959;49.310;8.646;2023-06-10T08:44:46;7.88;;;3.55;;
49139;SDS011;34959;49.310;8.646;2023-06-10T08:47:13;5.15;;;3.70;;
49139;SDS011;34959;49.310;8.646;2023-06-10T08:49:41;3.75;;;3.33;;
49139;SDS011;34959;49.310;8.646;2023-06-10T08:52:08;4.57;;;3.20;;
49139;SDS011;34959;49.310;8.646;2023-06-10T08:54:39;4.43;;;3.70;;
49139;SDS011;34959;49.310;8.646;2023-06-10T08:57:07;4.70;;;3.83;;
49139;SDS011;34959;49.310;8.646;2023-06-10T08:59:33;3.95;;;3.22;;
49139;SDS011;34959;49.310;8.646;2023-06-10T09:01:58;4.25;;;3.78;;
49139;SDS011;34959;49.310;8.646;2023-06-10T09:04:25;4.22;;;3.53;;
49139;SDS011;34959;49.310;8.646;2023-06-10T09:06:52;3.85;;;3.40;;
49139;SDS011;34959;49.310;8.646;2023-06-10T09:09:17;4.97;;;3.30;;
49139;SDS011;34959;49.310;8.646;2023-06-10T09:11:44;3.30;;;3.00;;
49139;SDS011;34959;49.310;8.646;2023-06-10T09:14:10;3.42;;;3.13;;
49139;SDS011;34959;49.310;8.646;2023-06-10T09:16:38;3.83;;;3.33;;
49139;SDS011;34959;49.310;8.646;2023-06-10T09:19:04;4.50;;;3.50;;
49139;SDS011;34959;49.310;8.646;2023-06-10T09:21:33;3.80;;;3.00;;
49139;SDS011;34959;49.310;8.646;2023-06-10T09:23:59;3.38;;;3.08;;
49139;SDS011;34959;49.310;8.646;2023-06-10T09:26:27;3.72;;;3.05;;
49139;SDS011;34959;49.310;8.646;2023-06-10T09:28:57;4.80;;;3.35;;
49139;SDS011;34959;49.310;8.646;2023-06-10T09:31:27;3.50;;;3.05;;
49139;SDS011;34959;49.310;8.646;2023-06-10T09:33:52;3.80;;;3.38;;
49139;SDS011;34959;49.310;8.646;2023-06-10T09:36:21;4.05;;;3.20;;
49139;SDS011;34959;49.310;8.646;2023-06-10T09:38:49;3.10;;;2.72;;
49139;SDS011;34959;49.310;8.646;2023-06-10T09:41:15;3.88;;;3.30;;
49139;SDS011;34959;49.310;8.646;2023-06-10T09:43:42;4.07;;;3.33;;
49139;SDS011;34959;49.310;8.646;2023-06-10T09:46:18;4.35;;;3.28;;
49139;SDS011;34959;49.310;8.646;2023-06-10T09:48:45;7.38;;;4.15;;
49139;SDS011;34959;49.310;8.646;2023-06-10T09:51:11;5.43;;;3.63;;
49139;SDS011;34959;49.310;8.646;2023-06-10T09:53:38;4.05;;;3.40;;
49139;SDS011;34959;49.310;8.646;2023-06-10T09:56:03;5.00;;;3.33;;
49139;SDS011;34959;49.310;8.646;2023-06-10T09:58:36;4.93;;;3.33;;
49139;SDS011;34959;49.310;8.646;2023-06-10T10:01:06;5.38;;;3.75;;
49139;SDS011;34959;49.310;8.646;2023-06-10T10:03:33;5.50;;;3.60;;
49139;SDS011;34959;49.310;8.646;2023-06-10T10:05:59;4.35;;;3.50;;
49139;SDS011;34959;49.310;8.646;2023-06-10T10:08:28;4.00;;;3.20;;
49139;SDS011;34959;49.310;8.646;2023-06-10T10:10:53;5.72;;;3.60;;
49139;SDS011;34959;49.310;8.646;2023-06-10T10:13:21;40.20;;;6.47;;
49139;SDS011;34959;49.310;8.646;2023-06-10T10:15:47;28.52;;;6.00;;
49139;SDS011;34959;49.310;8.646;2023-06-10T10:18:14;33.20;;;6.25;;
49139;SDS011;34959;49.310;8.646;2023-06-10T10:20:50;27.90;;;6.28;;
49139;SDS011;34959;49.310;8.646;2023-06-10T10:24:04;18.80;;;5.45;;
49139;SDS011;34959;49.310;8.646;2023-06-10T10:26:19;16.55;;;5.40;;
49139;SDS011;34959;49.310;8.646;2023-06-10T10:31:35;12.20;;;5.47;;
49139;SDS011;34959;49.310;8.646;2023-06-10T10:34:07;13.30;;;5.57;;
49139;SDS011;34959;49.310;8.646;2023-06-10T10:36:32;14.85;;;5.32;;
49139;SDS011;34959;49.310;8.646;2023-06-10T10:38:58;15.23;;;5.13;;
49139;SDS011;34959;49.310;8.646;2023-06-10T10:41:27;18.48;;;5.20;;
49139;SDS011;34959;49.310;8.646;2023-06-10T10:43:53;16.27;;;4.82;;
49139;SDS011;34959;49.310;8.646;2023-06-10T10:46:19;12.20;;;5.03;;
49139;SDS011;34959;49.310;8.646;2023-06-10T10:48:45;11.60;;;5.00;;
49139;SDS011;34959;49.310;8.646;2023-06-10T10:51:11;12.23;;;5.50;;
49139;SDS011;34959;49.310;8.646;2023-06-10T10:53:37;11.48;;;4.85;;
49139;SDS011;34959;49.310;8.646;2023-06-10T10:58:39;12.65;;;4.30;;
49139;SDS011;34959;49.310;8.646;2023-06-10T11:01:11;7.20;;;4.20;;
49139;SDS011;34959;49.310;8.646;2023-06-10T11:03:44;13.88;;;4.75;;
49139;SDS011;34959;49.310;8.646;2023-06-10T11:06:12;11.95;;;4.95;;
49139;SDS011;34959;49.310;8.646;2023-06-10T11:11:26;9.65;;;4.43;;
49139;SDS011;34959;49.310;8.646;2023-06-10T11:13:58;10.13;;;3.88;;
49139;SDS011;34959;49.310;8.646;2023-06-10T11:16:27;8.68;;;4.53;;
49139;SDS011;34959;49.310;8.646;2023-06-10T11:18:53;10.43;;;4.15;;
49139;SDS011;34959;49.310;8.646;2023-06-10T11:21:19;12.32;;;4.80;;
49139;SDS011;34959;49.310;8.646;2023-06-10T11:23:44;9.55;;;4.38;;
49139;SDS011;34959;49.310;8.646;2023-06-10T11:31:26;8.43;;;3.87;;
49139;SDS011;34959;49.310;8.646;2023-06-10T11:33:55;10.52;;;4.10;;
49139;SDS011;34959;49.310;8.646;2023-06-10T11:36:25;6.82;;;3.70;;
49139;SDS011;34959;49.310;8.646;2023-06-10T11:39:01;7.82;;;3.85;;
49139;SDS011;34959;49.310;8.646;2023-06-10T11:41:29;11.43;;;3.92;;
49139;SDS011;34959;49.310;8.646;2023-06-10T11:44:03;11.63;;;4.03;;
49139;SDS011;34959;49.310;8.646;2023-06-10T11:46:32;9.13;;;3.45;;
49139;SDS011;34959;49.310;8.646;2023-06-10T11:48:59;7.60;;;4.25;;
49139;SDS011;34959;49.310;8.646;2023-06-10T11:51:25;6.82;;;3.65;;
49139;SDS011;34959;49.310;8.646;2023-06-10T11:53:52;7.13;;;3.88;;
49139;SDS011;34959;49.310;8.646;2023-06-10T11:56:21;8.15;;;4.30;;
49139;SDS011;34959;49.310;8.646;2023-06-10T11:58:51;8.27;;;3.72;;
49139;SDS011;34959;49.310;8.646;2023-06-10T12:01:22;7.75;;;4.65;;
49139;SDS011;34959;49.310;8.646;2023-06-10T12:03:56;9.88;;;4.07;;
49139;SDS011;34959;49.310;8.646;2023-06-10T12:06:28;6.05;;;3.50;;
49139;SDS011;34959;49.310;8.646;2023-06-10T12:09:03;6.13;;;3.50;;
49139;SDS011;34959;49.310;8.646;2023-06-10T12:11:28;5.95;;;3.80;;
49139;SDS011;34959;49.310;8.646;2023-06-10T12:13:54;5.90;;;3.65;;
49139;SDS011;34959;49.310;8.646;2023-06-10T12:16:19;7.15;;;3.55;;
49139;SDS011;34959;49.310;8.646;2023-06-10T12:18:46;4.95;;;3.53;;
49139;SDS011;34959;49.310;8.646;2023-06-10T12:21:15;5.90;;;3.45;;
49139;SDS011;34959;49.310;8.646;2023-06-10T12:26:39;7.28;;;3.97;;
49139;SDS011;34959;49.310;8.646;2023-06-10T12:29:19;8.10;;;3.58;;
49139;SDS011;34959;49.310;8.646;2023-06-10T12:31:54;8.52;;;3.63;;
49139;SDS011;34959;49.310;8.646;2023-06-10T12:34:28;4.65;;;3.13;;
49139;SDS011;34959;49.310;8.646;2023-06-10T12:36:55;6.82;;;4.10;;
49139;SDS011;34959;49.310;8.646;2023-06-10T12:39:20;6.68;;;3.60;;
49139;SDS011;34959;49.310;8.646;2023-06-10T12:41:49;7.00;;;3.72;;
49139;SDS011;34959;49.310;8.646;2023-06-10T12:44:16;6.32;;;3.55;;
49139;SDS011;34959;49.310;8.646;2023-06-10T12:46:41;5.93;;;3.50;;
49139;SDS011;34959;49.310;8.646;2023-06-10T12:49:07;6.22;;;3.58;;
49139;SDS011;34959;49.310;8.646;2023-06-10T12:51:32;5.85;;;3.15;;
49139;SDS011;34959;49.310;8.646;2023-06-10T12:53:59;5.95;;;3.40;;
49139;SDS011;34959;49.310;8.646;2023-06-10T12:56:25;5.70;;;3.33;;
49139;SDS011;34959;49.310;8.646;2023-06-10T12:58:50;7.63;;;3.63;;
49139;SDS011;34959;49.310;8.646;2023-06-10T13:01:16;5.30;;;3.40;;
49139;SDS011;34959;49.310;8.646;2023-06-10T13:03:41;5.57;;;3.42;;
49139;SDS011;34959;49.310;8.646;2023-06-10T13:06:07;5.75;;;2.78;;
49139;SDS011;34959;49.310;8.646;2023-06-10T13:08:32;5.80;;;3.13;;
49139;SDS011;34959;49.310;8.646;2023-06-10T13:10:58;6.25;;;3.30;;
49139;SDS011;34959;49.310;8.646;2023-06-10T13:13:23;5.75;;;3.30;;
49139;SDS011;34959;49.310;8.646;2023-06-10T13:15:49;5.82;;;3.03;;
49139;SDS011;34959;49.310;8.646;2023-06-10T13:18:15;4.28;;;2.90;;
49139;SDS011;34959;49.310;8.646;2023-06-10T13:20:43;4.68;;;2.83;;
49139;SDS011;34959;49.310;8.646;2023-06-10T13:23:08;4.30;;;3.00;;
49139;SDS011;34959;49.310;8.646;2023-06-10T13:25:34;4.72;;;3.30;;
49139;SDS011;34959;49.310;8.646;2023-06-10T13:27:59;4.47;;;2.83;;
49139;SDS011;34959;49.310;8.646;2023-06-10T13:30:25;5.38;;;3.10;;
49139;SDS011;34959;49.310;8.646;2023-06-10T13:32:51;4.10;;;3.00;;
49139;SDS011;34959;49.310;8.646;2023-06-10T13:35:16;6.07;;;3.03;;
49139;SDS011;34959;49.310;8.646;2023-06-10T13:37:42;17.33;;;3.28;;
49139;SDS011;34959;49.310;8.646;2023-06-10T13:40:07;5.28;;;2.80;;
49139;SDS011;34959;49.310;8.646;2023-06-10T13:42:34;10.77;;;3.05;;
49139;SDS011;34959;49.310;8.646;2023-06-10T13:45:01;3.78;;;2.90;;
49139;SDS011;34959;49.310;8.646;2023-06-10T13:47:27;8.32;;;3.17;;
49139;SDS011;34959;49.310;8.646;2023-06-10T13:49:52;4.30;;;2.80;;
49139;SDS011;34959;49.310;8.646;2023-06-10T13:52:18;5.25;;;3.13;;
49139;SDS011;34959;49.310;8.646;2023-06-10T13:54:43;5.07;;;2.95;;
49139;SDS011;34959;49.310;8.646;2023-06-10T13:57:08;8.18;;;3.28;;
49139;SDS011;34959;49.310;8.646;2023-06-10T13:59:35;5.78;;;2.90;;
49139;SDS011;34959;49.310;8.646;2023-06-10T14:02:00;5.00;;;2.65;;
49139;SDS011;34959;49.310;8.646;2023-06-10T14:04:26;5.13;;;2.67;;
49139;SDS011;34959;49.310;8.646;2023-06-10T14:06:52;3.40;;;2.80;;
49139;SDS011;34959;49.310;8.646;2023-06-10T14:09:17;10.15;;;2.90;;
49139;SDS011;34959;49.310;8.646;2023-06-10T14:11:44;4.30;;;2.78;;
49139;SDS011;34959;49.310;8.646;2023-06-10T14:14:09;4.30;;;3.10;;
49139;SDS011;34959;49.310;8.646;2023-06-10T14:16:35;5.82;;;2.83;;
49139;SDS011;34959;49.310;8.646;2023-06-10T14:19:00;4.85;;;2.78;;
49139;SDS011;34959;49.310;8.646;2023-06-10T14:21:26;3.78;;;2.38;;
49139;SDS011;34959;49.310;8.646;2023-06-10T14:23:51;5.15;;;2.60;;
49139;SDS011;34959;49.310;8.646;2023-06-10T14:26:18;8.05;;;2.65;;
49139;SDS011;34959;49.310;8.646;2023-06-10T14:28:44;3.72;;;2.65;;
49139;SDS011;34959;49.310;8.646;2023-06-10T14:31:09;3.97;;;2.83;;
49139;SDS011;34959;49.310;8.646;2023-06-10T14:33:36;4.45;;;2.50;;
49139;SDS011;34959;49.310;8.646;2023-06-10T14:36:01;4.82;;;2.40;;
49139;SDS011;34959;49.310;8.646;2023-06-10T14:38:27;2.97;;;2.35;;
49139;SDS011;34959;49.310;8.646;2023-06-10T14:40:52;3.55;;;2.35;;
49139;SDS011;34959;49.310;8.646;2023-06-10T14:43:18;4.50;;;2.40;;
49139;SDS011;34959;49.310;8.646;2023-06-10T14:45:43;4.57;;;2.83;;
49139;SDS011;34959;49.310;8.646;2023-06-10T14:48:10;3.63;;;2.60;;
49139;SDS011;34959;49.310;8.646;2023-06-10T14:50:35;4.32;;;2.63;;
49139;SDS011;34959;49.310;8.646;2023-06-10T14:53:02;3.72;;;2.30;;
49139;SDS011;34959;49.310;8.646;2023-06-10T14:55:28;3.67;;;2.60;;
49139;SDS011;34959;49.310;8.646;2023-06-10T14:57:53;3.00;;;2.40;;
49139;SDS011;34959;49.310;8.646;2023-06-10T15:00:19;3.22;;;2.50;;
49139;SDS011;34959;49.310;8.646;2023-06-10T15:02:49;3.85;;;2.50;;